Time;durP1;ratioP1;P1;durP2;ratioP2;P2;SDS_P1;SDS_P2;PMS_P1;PMS_P2;Temp;Humidity;BMP_temperature;BMP_pressure;BME280_temperature;BME280_humidity;BME280_pressure;Samples;Min_cycle;Max_cycle;Signal;HPM_P1;HPM_P2
2021/01/23 00:01:19;;;;;;;1999.90;999.90;;;2.20;99.90;;;;;;5063932;28;20551;-84
2021/01/23 00:03:45;;;;;;;1999.90;999.90;;;2.40;99.90;;;;;;5084395;28;20160;-84
2021/01/23 00:06:10;;;;;;;1999.90;999.90;;;2.40;99.90;;;;;;5084766;28;20167;-84
2021/01/23 00:08:36;;;;;;;1999.90;999.90;;;2.40;99.90;;;;;;5082061;28;20745;-84
2021/01/23 00:11:02;;;;;;;1999.90;999.90;;;2.40;99.90;;;;;;5085556;28;20183;-85
2021/01/23 00:13:28;;;;;;;1999.90;999.90;;;2.40;99.90;;;;;;5083290;28;20160;-85
2021/01/23 00:15:53;;;;;;;1999.90;999.90;;;2.40;99.90;;;;;;5067502;28;20267;-84
2021/01/23 00:18:19;;;;;;;1999.90;999.90;;;2.30;99.90;;;;;;5082370;28;20196;-84
2021/01/23 00:20:45;;;;;;;1999.90;999.90;;;2.20;99.90;;;;;;5082201;28;20222;-84
2021/01/23 00:23:10;;;;;;;1999.90;999.90;;;2.30;99.90;;;;;;5081477;28;20160;-84
2021/01/23 00:25:36;;;;;;;1999.90;999.90;;;2.20;99.90;;;;;;5062793;28;20180;-84
2021/01/23 00:28:03;;;;;;;1999.90;999.90;;;2.20;99.90;;;;;;5081637;28;20194;-84
2021/01/23 00:30:28;;;;;;;1999.90;999.90;;;2.10;99.90;;;;;;5081484;28;20217;-84
2021/01/23 00:32:54;;;;;;;1999.90;999.90;;;2.10;99.90;;;;;;5081271;28;20167;-85
2021/01/23 00:35:20;;;;;;;1999.90;999.90;;;2.10;99.90;;;;;;5063300;28;20163;-84
2021/01/23 00:37:47;;;;;;;1999.90;999.90;;;2.10;99.90;;;;;;5082236;28;20266;-85
2021/01/23 00:40:13;;;;;;;1999.90;999.90;;;2.10;99.90;;;;;;5081464;28;20661;-84
2021/01/23 00:42:39;;;;;;;1999.90;999.90;;;2.10;99.90;;;;;;5062903;28;20167;-84
2021/01/23 00:45:05;;;;;;;1999.90;999.90;;;2.10;99.90;;;;;;5082012;28;20426;-84
2021/01/23 00:47:31;;;;;;;1999.90;999.90;;;2.10;99.90;;;;;;5067194;28;20225;-85
2021/01/23 00:49:56;;;;;;;1999.90;999.90;;;2.10;99.90;;;;;;5084487;28;20168;-84
2021/01/23 00:52:22;;;;;;;1999.90;999.90;;;2.10;99.90;;;;;;5081983;28;20168;-84
2021/01/23 00:54:48;;;;;;;1999.90;999.90;;;2.10;99.90;;;;;;5084834;28;20163;-84
2021/01/23 00:57:13;;;;;;;1999.90;999.90;;;2.20;99.90;;;;;;5082648;28;20690;-84
2021/01/23 00:59:39;;;;;;;1999.90;999.90;;;2.20;99.90;;;;;;5067802;28;20235;-84
2021/01/23 01:02:05;;;;;;;1999.90;999.90;;;2.30;99.90;;;;;;5085306;28;20669;-84
2021/01/23 01:04:30;;;;;;;1999.90;999.90;;;2.30;99.90;;;;;;5067285;28;20186;-85
2021/01/23 01:06:56;;;;;;;1999.90;999.90;;;2.30;99.90;;;;;;5067333;28;20172;-84
2021/01/23 01:09:21;;;;;;;1999.90;999.90;;;2.40;99.90;;;;;;5067882;28;20174;-84
2021/01/23 01:11:47;;;;;;;1999.90;999.90;;;2.40;99.90;;;;;;5082681;28;20254;-84
2021/01/23 01:14:13;;;;;;;1999.90;999.90;;;2.40;99.90;;;;;;5063221;28;20172;-84
2021/01/23 01:16:38;;;;;;;1999.90;999.90;;;2.40;99.90;;;;;;5063310;28;20227;-84
2021/01/23 01:19:04;;;;;;;1999.90;999.90;;;2.40;99.90;;;;;;5085413;28;20167;-85
2021/01/23 01:21:30;;;;;;;1999.90;999.90;;;2.40;99.90;;;;;;5066526;28;20171;-85
2021/01/23 01:23:55;;;;;;;1999.90;999.90;;;2.40;99.90;;;;;;5066494;28;20639;-84
2021/01/23 01:26:21;;;;;;;1999.90;999.90;;;2.40;99.90;;;;;;5062848;28;20188;-84
2021/01/23 01:28:46;;;;;;;1999.90;999.90;;;2.50;99.90;;;;;;5081305;28;20650;-84
2021/01/23 01:31:12;;;;;;;1999.90;999.90;;;2.40;99.90;;;;;;5085427;28;20190;-84
2021/01/23 01:33:38;;;;;;;1999.90;999.90;;;2.40;99.90;;;;;;5084147;28;20160;-84
2021/01/23 01:36:04;;;;;;;1999.90;999.90;;;2.40;99.90;;;;;;5066517;28;20263;-84
2021/01/23 01:38:30;;;;;;;1999.90;999.90;;;2.40;99.90;;;;;;5084907;28;20496;-84
2021/01/23 01:40:55;;;;;;;1999.90;999.90;;;2.40;99.90;;;;;;5067055;28;20214;-84
2021/01/23 01:43:24;;;;;;;1999.90;999.90;;;2.40;99.90;;;;;;5084551;28;20164;-84
2021/01/23 01:45:50;;;;;;;1999.90;999.90;;;2.30;99.90;;;;;;5088744;28;20632;-85
2021/01/23 01:48:16;;;;;;;1999.90;999.90;;;2.30;99.90;;;;;;5070629;28;20197;-85
2021/01/23 01:50:42;;;;;;;1999.90;999.90;;;2.30;99.90;;;;;;5071264;28;20168;-85
2021/01/23 01:53:07;;;;;;;1999.90;999.90;;;2.30;99.90;;;;;;5082900;28;20209;-84
2021/01/23 01:55:34;;;;;;;1999.90;999.90;;;2.40;99.90;;;;;;5084345;28;20164;-84
2021/01/23 01:58:03;;;;;;;1999.90;999.90;;;2.40;99.90;;;;;;5084349;28;20191;-84
2021/01/23 02:00:30;;;;;;;1999.90;999.90;;;2.40;99.90;;;;;;5066992;28;20175;-84
2021/01/23 02:03:23;;;;;;;1999.90;999.90;;;2.40;99.90;;;;;;5083786;28;20175;-85
2021/01/23 02:06:15;;;;;;;1999.90;999.90;;;2.30;99.90;;;;;;5084457;28;20199;-84
2021/01/23 02:08:54;;;;;;;1999.90;999.90;;;2.30;99.90;;;;;;5083418;28;20179;-85
2021/01/23 02:11:56;;;;;;;1999.90;999.90;;;2.30;99.90;;;;;;5084426;28;20152;-84
2021/01/23 02:14:49;;;;;;;1999.90;999.90;;;2.40;99.90;;;;;;5082970;28;20243;-84
2021/01/23 02:17:17;;;;;;;1999.90;999.90;;;2.30;99.90;;;;;;5084017;28;20190;-84
2021/01/23 02:20:13;;;;;;;1999.90;999.90;;;2.30;99.90;;;;;;5083741;28;20186;-84
2021/01/23 02:23:10;;;;;;;1999.90;999.90;;;2.30;99.90;;;;;;5066343;28;20160;-85
2021/01/23 02:25:52;;;;;;;1999.90;999.90;;;2.30;99.90;;;;;;5065840;28;20183;-84
2021/01/23 02:28:35;;;;;;;1999.90;999.90;;;2.30;99.90;;;;;;5083089;28;20183;-85
2021/01/23 02:31:14;;;;;;;1999.90;999.90;;;2.30;99.90;;;;;;5066446;28;20164;-84
2021/01/23 02:33:42;;;;;;;1999.90;999.90;;;2.20;99.90;;;;;;5068654;28;20210;-84
2021/01/23 02:36:10;;;;;;;1999.90;999.90;;;2.20;99.90;;;;;;5068267;28;20175;-84
2021/01/23 02:38:38;;;;;;;1999.90;999.90;;;2.20;99.90;;;;;;5087223;28;20156;-85
2021/01/23 02:41:04;;;;;;;1999.90;999.90;;;2.20;99.90;;;;;;5086961;28;20160;-85
2021/01/23 02:43:31;;;;;;;1999.90;999.90;;;2.30;99.90;;;;;;5069526;28;20191;-85
2021/01/23 02:45:57;;;;;;;1999.90;999.90;;;2.20;99.90;;;;;;5085304;28;20171;-85
2021/01/23 02:48:23;;;;;;;1999.90;999.90;;;2.20;99.90;;;;;;5087038;28;20207;-85
2021/01/23 02:50:49;;;;;;;1999.90;999.90;;;2.20;99.90;;;;;;5086222;28;20798;-84
2021/01/23 02:53:25;;;;;;;1999.90;999.90;;;2.20;99.90;;;;;;5065131;28;20171;-84
2021/01/23 02:56:02;;;;;;;1999.90;999.90;;;2.20;99.90;;;;;;5068868;28;20163;-85
2021/01/23 02:58:31;;;;;;;1999.90;999.90;;;2.20;99.90;;;;;;5086508;28;20201;-85
2021/01/23 03:01:00;;;;;;;1999.90;999.90;;;2.20;99.90;;;;;;5085498;28;20178;-85
2021/01/23 03:03:27;;;;;;;1999.90;999.90;;;2.20;99.90;;;;;;5083567;28;20527;-85
2021/01/23 03:05:54;;;;;;;1999.90;999.90;;;2.20;99.90;;;;;;5082703;28;20168;-84
2021/01/23 03:08:20;;;;;;;1999.90;999.90;;;2.20;99.90;;;;;;5065770;28;20172;-85
2021/01/23 03:10:46;;;;;;;1999.90;999.90;;;2.20;99.90;;;;;;5066290;28;20172;-85
2021/01/23 03:13:14;;;;;;;1999.90;999.90;;;2.10;99.90;;;;;;5086432;28;20168;-85
2021/01/23 03:15:41;;;;;;;1999.90;999.90;;;2.10;99.90;;;;;;5086248;28;20164;-85
2021/01/23 03:18:08;;;;;;;1999.90;999.90;;;2.10;99.90;;;;;;5067850;28;20218;-85
2021/01/23 03:20:35;;;;;;;1999.90;999.90;;;2.10;99.90;;;;;;5068129;28;20168;-84
2021/01/23 03:23:01;;;;;;;1999.90;999.90;;;2.00;99.90;;;;;;5084384;28;20164;-84
2021/01/23 03:25:28;;;;;;;1999.90;999.90;;;2.00;99.90;;;;;;5082446;28;20180;-84
2021/01/23 03:27:54;;;;;;;1999.90;999.90;;;2.00;99.90;;;;;;5082380;28;20199;-85
2021/01/23 03:30:21;;;;;;;1999.90;999.90;;;2.10;99.90;;;;;;5082387;28;20164;-84
2021/01/23 03:32:48;;;;;;;1999.90;999.90;;;2.10;99.90;;;;;;5082033;28;20261;-84
2021/01/23 03:35:13;;;;;;;1999.90;999.90;;;2.00;99.90;;;;;;5064535;28;20194;-85
2021/01/23 03:37:39;;;;;;;1999.90;999.90;;;1.90;99.90;;;;;;5081878;28;20194;-84
2021/01/23 03:40:06;;;;;;;1999.90;999.90;;;1.90;99.90;;;;;;5082155;28;20623;-84
2021/01/23 03:42:33;;;;;;;1999.90;999.90;;;1.90;99.90;;;;;;5082442;28;20163;-85
2021/01/23 03:44:59;;;;;;;1999.90;999.90;;;1.90;99.90;;;;;;5064218;28;20163;-85
2021/01/23 03:47:25;;;;;;;1999.90;999.90;;;1.90;99.90;;;;;;5082230;28;20164;-85
2021/01/23 03:49:50;;;;;;;1999.90;999.90;;;1.90;99.90;;;;;;5081366;28;20167;-84
2021/01/23 03:52:16;;;;;;;1999.90;999.90;;;1.90;99.90;;;;;;5081353;28;20175;-84
2021/01/23 03:54:42;;;;;;;1999.90;999.90;;;1.90;99.90;;;;;;5063737;28;20168;-85
2021/01/23 03:57:09;;;;;;;1999.90;999.90;;;1.80;99.90;;;;;;5066498;28;20241;-85
2021/01/23 03:59:35;;;;;;;1999.90;999.90;;;1.90;99.90;;;;;;5067021;28;20198;-85
2021/01/23 04:02:01;;;;;;;1999.90;999.90;;;1.90;99.90;;;;;;5066766;28;20202;-84
2021/01/23 04:04:27;;;;;;;1999.90;999.90;;;1.80;99.90;;;;;;5082888;28;20164;-85
2021/01/23 04:06:53;;;;;;;1999.90;999.90;;;1.80;99.90;;;;;;5081381;28;20577;-84
2021/01/23 04:09:19;;;;;;;1999.90;999.90;;;1.80;99.90;;;;;;5080179;28;20628;-85
2021/01/23 04:11:44;;;;;;;1999.90;999.90;;;1.90;99.90;;;;;;5079539;28;20202;-84
2021/01/23 04:14:10;;;;;;;1999.90;999.90;;;1.90;99.90;;;;;;5079709;28;20170;-84
2021/01/23 04:16:36;;;;;;;1999.90;999.90;;;1.80;99.90;;;;;;5063965;28;20199;-84
2021/01/23 04:19:03;;;;;;;1999.90;999.90;;;1.80;99.90;;;;;;5081816;28;20643;-84
2021/01/23 04:21:29;;;;;;;1999.90;999.90;;;1.90;99.90;;;;;;5081151;28;20160;-84
2021/01/23 04:23:54;;;;;;;1999.90;999.90;;;1.90;99.90;;;;;;5078623;28;20162;-84
2021/01/23 04:26:20;;;;;;;1999.90;999.90;;;1.90;99.90;;;;;;5078925;28;20184;-84
2021/01/23 04:28:46;;;;;;;1999.90;999.90;;;1.90;99.90;;;;;;5078868;28;20156;-84
2021/01/23 04:31:12;;;;;;;1999.90;999.90;;;1.90;99.90;;;;;;5061238;28;20531;-84
2021/01/23 04:33:37;;;;;;;1999.90;999.90;;;1.90;99.90;;;;;;5061647;28;20520;-84
2021/01/23 04:36:04;;;;;;;1999.90;999.90;;;1.90;99.90;;;;;;5079189;28;20221;-84
2021/01/23 04:38:29;;;;;;;1999.90;999.90;;;1.90;99.90;;;;;;5061003;28;20225;-84
2021/01/23 04:40:59;;;;;;;1999.90;999.90;;;1.90;99.90;;;;;;5081375;28;20160;-84
2021/01/23 04:43:25;;;;;;;1999.90;999.90;;;1.90;99.90;;;;;;5080690;28;20156;-84
2021/01/23 04:45:51;;;;;;;1999.90;999.90;;;2.00;99.90;;;;;;5081200;28;20159;-84
2021/01/23 04:48:17;;;;;;;1999.90;999.90;;;2.00;99.90;;;;;;5064223;28;20630;-84
2021/01/23 04:50:46;;;;;;;1999.90;999.90;;;2.10;99.90;;;;;;5081847;28;20523;-83
2021/01/23 04:53:13;;;;;;;1999.90;999.90;;;2.10;99.90;;;;;;5081041;28;20172;-84
2021/01/23 04:55:38;;;;;;;1999.90;999.90;;;2.10;99.90;;;;;;5079728;28;20159;-84
2021/01/23 04:58:04;;;;;;;1999.90;999.90;;;2.10;99.90;;;;;;5078587;28;20188;-85
2021/01/23 05:00:30;;;;;;;1999.90;999.90;;;2.10;99.90;;;;;;5078874;28;20167;-84
2021/01/23 05:03:04;;;;;;;1999.90;999.90;;;2.00;99.90;;;;;;5079292;28;20213;-84
2021/01/23 05:05:30;;;;;;;1999.90;999.90;;;2.00;99.90;;;;;;5078734;28;20160;-84
2021/01/23 05:08:12;;;;;;;1999.90;999.90;;;2.00;99.90;;;;;;5060986;28;20168;-84
2021/01/23 05:10:41;;;;;;;1999.90;999.90;;;2.10;99.90;;;;;;5081980;28;20163;-84
2021/01/23 05:13:17;;;;;;;1999.90;999.90;;;2.10;99.90;;;;;;5063949;28;20164;-84
2021/01/23 05:15:46;;;;;;;1999.90;999.90;;;2.10;99.90;;;;;;5065371;28;20565;-84
2021/01/23 05:18:13;;;;;;;1999.90;999.90;;;2.10;99.90;;;;;;5064944;28;20195;-84
2021/01/23 05:20:50;;;;;;;1999.90;999.90;;;2.30;99.90;;;;;;5082823;28;20182;-84
2021/01/23 05:23:27;;;;;;;1999.90;999.90;;;2.30;99.90;;;;;;5084635;28;20155;-85
2021/01/23 05:26:00;;;;;;;1999.90;999.90;;;2.30;99.90;;;;;;5069456;28;20241;-85
2021/01/23 05:28:29;;;;;;;1999.90;999.90;;;2.40;99.90;;;;;;5086973;28;20262;-85
2021/01/23 05:30:55;;;;;;;1999.90;999.90;;;2.40;99.90;;;;;;5087161;28;20168;-85
2021/01/23 05:33:22;;;;;;;1999.90;999.90;;;2.50;99.90;;;;;;5086426;28;20167;-85
2021/01/23 05:36:03;;;;;;;1999.90;999.90;;;2.50;99.90;;;;;;5085638;28;20175;-85
2021/01/23 05:38:32;;;;;;;1999.90;999.90;;;2.60;99.90;;;;;;5083347;28;20214;-85
2021/01/23 05:41:09;;;;;;;1999.90;999.90;;;2.50;99.90;;;;;;5082551;28;20518;-85
2021/01/23 05:43:41;;;;;;;1999.90;999.90;;;2.60;99.90;;;;;;5080967;28;20143;-85
2021/01/23 05:46:29;;;;;;;1999.90;999.90;;;2.50;99.90;;;;;;5081066;28;20152;-85
2021/01/23 05:48:55;;;;;;;1999.90;999.90;;;2.50;99.90;;;;;;5060846;28;20225;-85
2021/01/23 05:51:22;;;;;;;1999.90;999.90;;;2.50;99.90;;;;;;5078826;28;20170;-85
2021/01/23 05:53:49;;;;;;;1999.90;999.90;;;2.50;99.90;;;;;;5078298;28;20168;-85
2021/01/23 05:56:15;;;;;;;1999.90;999.90;;;2.60;99.90;;;;;;5059139;28;20263;-85
2021/01/23 05:58:43;;;;;;;1999.90;999.90;;;2.60;99.90;;;;;;5077253;28;20210;-85
2021/01/23 06:01:18;;;;;;;1999.90;999.90;;;2.70;99.90;;;;;;5076786;28;20160;-85
2021/01/23 06:03:51;;;;;;;1999.90;999.90;;;2.70;99.90;;;;;;5058444;28;20175;-85
2021/01/23 06:06:17;;;;;;;1999.90;999.90;;;2.60;99.90;;;;;;5059480;28;20152;-85
2021/01/23 06:08:53;;;;;;;1999.90;999.90;;;2.60;99.90;;;;;;5059078;28;20658;-85
2021/01/23 06:11:19;;;;;;;1999.90;999.90;;;2.50;99.90;;;;;;5076257;28;20386;-85
2021/01/23 06:13:56;;;;;;;1999.90;999.90;;;2.50;99.90;;;;;;5077519;28;20168;-85
2021/01/23 06:16:44;;;;;;;1999.90;999.90;;;2.50;99.90;;;;;;5058669;28;20148;-85
2021/01/23 06:19:25;;;;;;;1999.90;999.90;;;2.50;99.90;;;;;;5059140;28;20148;-85
2021/01/23 06:21:54;;;;;;;1999.90;999.90;;;2.50;99.90;;;;;;5075894;28;20163;-88
2021/01/23 06:24:42;;;;;;;1999.90;999.90;;;2.50;99.90;;;;;;5059141;28;20646;-87
2021/01/23 06:27:08;;;;;;;1999.90;999.90;;;2.60;99.90;;;;;;5077204;28;20176;-86
2021/01/23 06:30:00;;;;;;;1999.90;999.90;;;2.60;99.90;;;;;;5077057;28;20190;-87
2021/01/23 06:32:31;;;;;;;1999.90;999.90;;;2.60;99.90;;;;;;4976426;28;20481;-87
2021/01/23 06:35:01;;;;;;;1999.90;999.90;;;2.70;99.90;;;;;;5076140;28;20175;-87
2021/01/23 06:37:39;;;;;;;1999.90;999.90;;;2.70;99.90;;;;;;5075816;28;20184;-87
2021/01/23 06:40:19;;;;;;;1999.90;999.90;;;2.80;99.90;;;;;;5076967;28;20199;-87
2021/01/23 06:42:51;;;;;;;1999.90;999.90;;;2.70;99.90;;;;;;5058566;28;20619;-87
2021/01/23 06:45:29;;;;;;;1999.90;999.90;;;2.70;99.90;;;;;;5058815;28;20160;-87
2021/01/23 06:47:56;;;;;;;1999.90;999.90;;;2.70;99.90;;;;;;5058367;28;20207;-87
2021/01/23 06:50:32;;;;;;;1999.90;999.90;;;2.70;99.90;;;;;;5041174;28;20269;-87
2021/01/23 06:53:22;;;;;;;1999.90;999.90;;;2.70;99.90;;;;;;5075740;28;20619;-87
2021/01/23 06:55:54;;;;;;;1999.90;999.90;;;2.70;99.90;;;;;;5058675;28;20170;-87
2021/01/23 06:58:30;;;;;;;1999.90;999.90;;;2.70;99.90;;;;;;5075684;28;20190;-87
2021/01/23 07:01:03;;;;;;;1999.90;999.90;;;2.70;99.90;;;;;;5058139;28;20243;-87
2021/01/23 07:03:30;;;;;;;1999.90;999.90;;;2.70;99.90;;;;;;5076573;28;20164;-88
2021/01/23 07:06:05;;;;;;;1999.90;999.90;;;2.70;99.90;;;;;;5076963;28;20160;-87
2021/01/23 07:08:53;;;;;;;1999.90;999.90;;;2.70;99.90;;;;;;5078677;28;20226;-87
2021/01/23 07:11:25;;;;;;;1999.90;999.90;;;2.80;99.90;;;;;;5061788;28;20160;-87
2021/01/23 07:14:14;;;;;;;1999.90;999.90;;;2.80;99.90;;;;;;5061281;28;20194;-87
2021/01/23 07:17:03;;;;;;;1999.90;999.90;;;2.80;99.90;;;;;;5079673;28;20662;-87
2021/01/23 07:19:35;;;;;;;1999.90;999.90;;;2.80;99.90;;;;;;5081167;28;20172;-85
2021/01/23 07:22:05;;;;;;;1999.90;999.90;;;2.90;99.90;;;;;;5065912;28;20171;-85
2021/01/23 07:41:04;;;;;;;;;;;;;;;;;;;;;
2021/01/23 08:05:38;;;;;;;1999.90;999.90;;;3.30;99.90;;;;;;4900868;29;20169;-81
2021/01/23 08:09:20;;;;;;;;;;;;;;;;;;;;;
2021/01/23 08:23:10;;;;;;;;;;;;;;;;;;;;;
2021/01/23 08:33:58;;;;;;;;;;;;;;;;;;;;;
2021/01/23 08:41:05;;;;;;;1999.90;999.90;;;3.50;99.90;;;;;;5013679;28;20169;-80
2021/01/23 08:43:59;;;;;;;1999.90;999.90;;;3.50;99.90;;;;;;5034796;28;20172;-81
2021/01/23 08:50:46;;;;;;;;;;;;;;;;;;;;;
2021/01/23 08:54:24;;;;;;;1999.90;999.90;;;3.50;99.90;;;;;;4873506;29;20263;-82
2021/01/23 09:01:15;;;;;;;;;;;;;;;;;;;;;
2021/01/23 09:04:26;;;;;;;1999.90;999.90;;;3.60;99.90;;;;;;4945654;28;20166;-81
2021/01/23 09:07:48;;;;;;;1999.90;999.90;;;3.60;99.90;;;;;;4946616;28;20182;-82
2021/01/23 09:11:38;;;;;;;1999.90;999.90;;;3.70;99.90;;;;;;4895496;28;20174;-82
2021/01/23 09:14:59;;;;;;;1999.90;999.90;;;3.70;99.90;;;;;;4882573;29;20178;-82
2021/01/23 09:18:11;;;;;;;;;;;;;;;;;;;;;
2021/01/23 09:21:52;;;;;;;;;;;;;;;;;;;;;
2021/01/23 09:28:32;;;;;;;1999.90;999.90;;;3.80;99.90;;;;;;4943022;29;20535;-82
2021/01/23 09:34:24;;;;;;;1999.90;999.90;;;3.90;99.90;;;;;;4956642;28;20207;-81
2021/01/23 09:36:50;;;;;;;1999.90;999.90;;;4.00;99.90;;;;;;5039199;28;20291;-82
2021/01/23 09:40:09;;;;;;;1999.90;999.90;;;4.00;99.90;;;;;;5038902;28;20204;-82
2021/01/23 09:45:35;;;;;;;1999.90;999.90;;;4.20;99.90;;;;;;5002435;28;20278;-82
2021/01/23 09:48:25;;;;;;;1999.90;999.90;;;4.20;99.90;;;;;;5057602;28;20145;-82
2021/01/23 09:51:10;;;;;;;1999.90;999.90;;;4.40;99.90;;;;;;5057044;28;20153;-82
2021/01/23 10:07:43;;;;;;;1999.90;999.90;;;5.00;99.90;;;;;;4983316;28;20558;-82
2021/01/23 10:11:11;;;;;;;1999.90;999.90;;;5.10;99.90;;;;;;5041843;28;20185;-81
2021/01/23 10:13:52;;;;;;;1999.90;999.90;;;5.20;99.90;;;;;;5039245;28;20270;-82
2021/01/23 10:16:22;;;;;;;1999.90;999.90;;;5.20;99.90;;;;;;5043211;28;20171;-81
2021/01/23 10:19:21;;;;;;;1999.90;999.90;;;5.30;99.90;;;;;;5042257;28;20267;-82
2021/01/23 10:22:01;;;;;;;;;;;;;;;;;;;;;
2021/01/23 10:25:06;;;;;;;;;;;;;;;;;;;;;
2021/01/23 10:28:07;;;;;;;1999.90;999.90;;;5.40;99.90;;;;;;5060251;28;20247;-81
2021/01/23 10:31:16;;;;;;;;;;;;;;;;;;;;;
2021/01/23 10:37:31;;;;;;;1999.90;999.90;;;5.70;99.90;;;;;;5015393;28;20200;-81
2021/01/23 10:40:09;;;;;;;1999.90;999.90;;;5.70;99.90;;;;;;5041976;28;20164;-81
2021/01/23 10:42:43;;;;;;;1999.90;999.90;;;5.80;99.90;;;;;;5042264;28;20546;-81
2021/01/23 10:45:38;;;;;;;1999.90;999.90;;;5.90;99.90;;;;;;5060180;28;20598;-81
2021/01/23 10:48:15;;;;;;;1999.90;999.90;;;6.20;99.90;;;;;;5039236;28;20176;-81
2021/01/23 10:50:43;;;;;;;1999.90;999.90;;;6.40;99.90;;;;;;5042385;28;20171;-81
2021/01/23 10:53:15;;;;;;;1999.90;999.90;;;6.40;99.90;;;;;;5040524;28;20592;-81
2021/01/23 10:55:44;;;;;;;1999.90;999.90;;;6.60;99.90;;;;;;5060537;28;20211;-81
2021/01/23 10:58:39;;;;;;;;;;;;;;;;;;;;;
2021/01/23 11:01:14;;;;;;;1999.90;999.90;;;6.80;99.90;;;;;;5059500;28;20228;-81
2021/01/23 11:03:56;;;;;;;1999.90;999.90;;;7.00;99.90;;;;;;5041518;28;20196;-81
2021/01/23 11:06:42;;;;;;;1999.90;999.90;;;7.20;99.90;;;;;;5058670;28;20175;-81
2021/01/23 11:09:10;;;;;;;1999.90;999.90;;;7.20;99.90;;;;;;5059927;28;20171;-81
2021/01/23 11:11:47;;;;;;;1999.90;999.90;;;7.40;99.90;;;;;;5059329;28;20535;-81
2021/01/23 11:14:48;;;;;;;;;;;;;;;;;;;;;
2021/01/23 11:17:38;;;;;;;1999.90;999.90;;;7.20;99.90;;;;;;5059367;28;20734;-81
2021/01/23 11:20:24;;;;;;;;;;;;;;;;;;;;;
2021/01/23 11:23:04;;;;;;;1999.90;999.90;;;7.30;99.90;;;;;;5058937;28;20208;-81
2021/01/23 11:25:58;;;;;;;;;;;;;;;;;;;;;
2021/01/23 11:28:44;;;;;;;1999.90;999.90;;;7.60;99.90;;;;;;5059300;28;20224;-81
2021/01/23 11:31:29;;;;;;;1999.90;999.90;;;7.70;99.90;;;;;;5041706;28;20196;-81
2021/01/23 11:34:34;;;;;;;1999.90;999.90;;;7.70;99.90;;;;;;5041018;28;20175;-81
2021/01/23 11:37:28;;;;;;;1999.90;999.90;;;7.60;99.90;;;;;;5040607;28;20200;-81
2021/01/23 11:40:02;;;;;;;1999.90;999.90;;;7.40;99.90;;;;;;5058799;28;20169;-81
2021/01/23 11:42:55;;;;;;;1999.90;999.90;;;7.40;99.90;;;;;;5039807;28;20200;-81
2021/01/23 11:51:49;;;;;;;1999.90;999.90;;;7.40;99.90;;;;;;5059122;28;20155;-81
2021/01/23 11:54:48;;;;;;;1999.90;999.90;;;7.50;99.90;;;;;;5039475;28;20172;-81
2021/01/23 11:57:21;;;;;;;1999.90;999.90;;;7.80;99.90;;;;;;5041247;28;20196;-81
2021/01/23 12:00:10;;;;;;;1999.90;999.90;;;7.80;99.90;;;;;;5040034;28;20184;-81
2021/01/23 12:02:45;;;;;;;1999.90;999.90;;;7.90;99.90;;;;;;5040566;28;20175;-81
2021/01/23 12:05:23;;;;;;;;;;;;;;;;;;;;;
2021/01/23 12:07:55;;;;;;;1999.90;999.90;;;7.90;99.90;;;;;;5057903;28;20251;-82
2021/01/23 12:10:26;;;;;;;1999.90;999.90;;;7.80;99.90;;;;;;5041191;28;20627;-82
2021/01/23 12:13:13;;;;;;;1999.90;999.90;;;7.80;99.90;;;;;;5059330;28;20173;-82
2021/01/23 12:15:48;;;;;;;1999.90;999.90;;;7.90;99.90;;;;;;5040317;28;20547;-82
2021/01/23 12:18:57;;;;;;;1999.90;999.90;;;7.80;99.90;;;;;;5058238;28;20176;-82
2021/01/23 12:21:44;;;;;;;;;;;;;;;;;;;;;
2021/01/23 12:24:31;;;;;;;1999.90;999.90;;;7.80;99.90;;;;;;5058387;28;20590;-81
2021/01/23 12:27:17;;;;;;;;;;;;;;;;;;;;;
2021/01/23 12:30:23;;;;;;;1999.90;999.90;;;7.80;99.90;;;;;;5059604;28;20655;-82
2021/01/23 12:33:21;;;;;;;1999.90;999.90;;;7.70;99.90;;;;;;5058195;28;20175;-82
2021/01/23 12:36:08;;;;;;;;;;;;;;;;;;;;;
2021/01/23 12:38:48;;;;;;;1999.90;999.90;;;7.60;99.90;;;;;;5058591;28;20287;-82
2021/01/23 12:41:37;;;;;;;1999.90;999.90;;;7.60;99.90;;;;;;5040266;28;20210;-82
2021/01/23 12:44:12;;;;;;;1999.90;999.90;;;7.60;99.90;;;;;;5036912;28;20177;-82
2021/01/23 12:47:14;;;;;;;1999.90;999.90;;;7.70;99.90;;;;;;5038691;28;20222;-82
2021/01/23 12:49:46;;;;;;;1999.90;999.90;;;7.70;99.90;;;;;;5041643;28;20202;-82
2021/01/23 12:53:18;;;;;;;;;;;;;;;;;;;;;
2021/01/23 12:56:07;;;;;;;1999.90;999.90;;;7.80;99.90;;;;;;5058683;28;20235;-82
2021/01/23 12:59:15;;;;;;;1999.90;999.90;;;7.80;99.90;;;;;;5041885;28;20192;-82
2021/01/23 13:02:25;;;;;;;;;;;;;;;;;;;;;
2021/01/23 13:05:37;;;;;;;1999.90;999.90;;;7.70;99.90;;;;;;5033878;28;20683;-82
2021/01/23 13:08:42;;;;;;;1999.90;999.90;;;7.80;99.90;;;;;;5033530;28;20181;-82
2021/01/23 13:11:21;;;;;;;1999.90;999.90;;;7.80;99.90;;;;;;4958350;29;20283;-81
2021/01/23 13:14:09;;;;;;;;;;;;;;;;;;;;;
2021/01/23 13:17:13;;;;;;;1999.90;999.90;;;7.90;99.90;;;;;;5058637;28;20236;-82
2021/01/23 13:20:03;;;;;;;1999.90;999.90;;;7.90;99.90;;;;;;5055015;28;20180;-82
2021/01/23 13:23:02;;;;;;;1999.90;999.90;;;7.70;99.90;;;;;;4957004;29;20271;-82
2021/01/23 13:25:28;;;;;;;1999.90;999.90;;;7.80;99.90;;;;;;5072977;22;20235;-86
2021/01/23 13:27:54;;;;;;;1999.90;999.90;;;7.70;99.90;;;;;;5052977;28;20165;-86
2021/01/23 13:30:20;;;;;;;1999.90;999.90;;;7.80;99.90;;;;;;5054190;28;20192;-86
2021/01/23 13:32:46;;;;;;;1999.90;999.90;;;7.70;99.90;;;;;;5038785;28;20168;-86
2021/01/23 13:35:14;;;;;;;1999.90;999.90;;;7.60;99.90;;;;;;5056602;28;20627;-86
2021/01/23 13:37:43;;;;;;;1999.90;999.90;;;7.60;99.90;;;;;;5038558;28;20200;-86
2021/01/23 13:40:09;;;;;;;1999.90;999.90;;;7.40;99.90;;;;;;5038982;28;20589;-86
2021/01/23 13:42:35;;;;;;;1999.90;999.90;;;7.30;99.90;;;;;;5056610;28;20167;-86
2021/01/23 13:45:01;;;;;;;1999.90;999.90;;;7.40;99.90;;;;;;5056521;28;20160;-86
2021/01/23 13:47:27;;;;;;;1999.90;999.90;;;7.40;99.90;;;;;;5038641;28;20635;-86
2021/01/23 13:49:53;;;;;;;1999.90;999.90;;;7.50;99.90;;;;;;5056294;28;20755;-86
2021/01/23 13:52:19;;;;;;;1999.90;999.90;;;7.30;99.90;;;;;;5038395;28;20255;-86
2021/01/23 13:54:45;;;;;;;1999.90;999.90;;;7.30;99.90;;;;;;5039317;28;20286;-86
2021/01/23 13:57:12;;;;;;;1999.90;999.90;;;7.40;99.90;;;;;;5038439;28;20284;-86
2021/01/23 13:59:40;;;;;;;1999.90;999.90;;;7.50;99.90;;;;;;5038337;28;20255;-86
2021/01/23 14:02:06;;;;;;;1999.90;999.90;;;7.40;99.90;;;;;;5038361;28;20192;-86
2021/01/23 14:04:34;;;;;;;1999.90;999.90;;;7.30;99.90;;;;;;5056248;28;20183;-86
2021/01/23 14:07:00;;;;;;;1999.90;999.90;;;7.30;99.90;;;;;;5038382;28;20180;-86
2021/01/23 14:09:26;;;;;;;1999.90;999.90;;;7.20;99.90;;;;;;5038295;28;20173;-86
2021/01/23 14:11:53;;;;;;;1999.90;999.90;;;7.20;99.90;;;;;;5056038;28;20172;-86
2021/01/23 14:14:18;;;;;;;1999.90;999.90;;;7.20;99.90;;;;;;5039197;28;20172;-86
2021/01/23 14:16:44;;;;;;;1999.90;999.90;;;7.20;99.90;;;;;;5038271;28;20169;-86
2021/01/23 14:19:10;;;;;;;1999.90;999.90;;;7.30;99.90;;;;;;5056080;28;20210;-86
2021/01/23 14:21:35;;;;;;;1999.90;999.90;;;7.30;99.90;;;;;;5038440;28;20172;-86
2021/01/23 14:24:01;;;;;;;1999.90;999.90;;;7.40;99.90;;;;;;5055870;28;20539;-86
2021/01/23 14:26:27;;;;;;;1999.90;999.90;;;7.30;99.90;;;;;;5055645;28;20651;-86
2021/01/23 14:28:52;;;;;;;1999.90;999.90;;;7.30;99.90;;;;;;5038025;28;20631;-86
2021/01/23 14:31:18;;;;;;;1999.90;999.90;;;7.20;99.90;;;;;;5056079;28;20623;-86
2021/01/23 14:33:44;;;;;;;1999.90;999.90;;;7.30;99.90;;;;;;5037912;28;20172;-86
2021/01/23 14:36:10;;;;;;;1999.90;999.90;;;7.40;99.90;;;;;;5037717;28;20662;-86
2021/01/23 14:38:35;;;;;;;1999.90;999.90;;;7.40;99.90;;;;;;5055951;28;20196;-86
2021/01/23 14:41:02;;;;;;;1999.90;999.90;;;7.30;99.90;;;;;;5055444;28;20169;-86
2021/01/23 14:43:28;;;;;;;1999.90;999.90;;;7.20;99.90;;;;;;5055583;28;20164;-86
2021/01/23 14:45:53;;;;;;;1999.90;999.90;;;7.20;99.90;;;;;;5037595;28;20165;-86
2021/01/23 14:48:19;;;;;;;1999.90;999.90;;;7.20;99.90;;;;;;5056199;28;20693;-86
2021/01/23 14:50:44;;;;;;;1999.90;999.90;;;7.20;99.90;;;;;;5055641;28;20222;-86
2021/01/23 14:53:10;;;;;;;1999.90;999.90;;;7.20;99.90;;;;;;5055275;28;20201;-86
2021/01/23 14:55:36;;;;;;;1999.90;999.90;;;7.20;99.90;;;;;;5055349;28;20157;-86
2021/01/23 14:58:02;;;;;;;1999.90;999.90;;;7.10;99.90;;;;;;5037427;28;20570;-86
2021/01/23 15:00:27;;;;;;;1999.90;999.90;;;7.00;99.90;;;;;;5055427;28;20165;-86
2021/01/23 15:02:53;;;;;;;1999.90;999.90;;;6.90;99.90;;;;;;5055211;28;20402;-86